sensor_id;sensor_type;location;lat;lon;timestamp;P1;durP1;ratioP1;P2;durP2;ratioP2
77287;SDS011;66345;42.694;23.346;2023-08-06T00:02:13;6.90;;;2.90;;
77287;SDS011;66345;42.694;23.346;2023-08-06T00:04:39;5.10;;;2.58;;
77287;SDS011;66345;42.694;23.346;2023-08-06T00:07:04;5.75;;;2.45;;
77287;SDS011;66345;42.694;23.346;2023-08-06T00:09:30;6.53;;;2.70;;
77287;SDS011;66345;42.694;23.346;2023-08-06T00:11:55;7.15;;;2.97;;
77287;SDS011;66345;42.694;23.346;2023-08-06T00:14:21;9.82;;;2.85;;
77287;SDS011;66345;42.694;23.346;2023-08-06T00:16:46;7.07;;;2.50;;
77287;SDS011;66345;42.694;23.346;2023-08-06T00:19:12;6.47;;;2.83;;
77287;SDS011;66345;42.694;23.346;2023-08-06T00:21:37;7.22;;;2.40;;
77287;SDS011;66345;42.694;23.346;2023-08-06T00:24:03;6.77;;;3.00;;
77287;SDS011;66345;42.694;23.346;2023-08-06T00:26:28;6.23;;;2.60;;
77287;SDS011;66345;42.694;23.346;2023-08-06T00:28:54;8.83;;;3.00;;
77287;SDS011;66345;42.694;23.346;2023-08-06T00:31:19;6.65;;;3.05;;
77287;SDS011;66345;42.694;23.346;2023-08-06T00:33:45;7.37;;;3.03;;
77287;SDS011;66345;42.694;23.346;2023-08-06T00:36:10;9.00;;;3.67;;
77287;SDS011;66345;42.694;23.346;2023-08-06T00:38:35;7.60;;;3.37;;
77287;SDS011;66345;42.694;23.346;2023-08-06T00:41:01;7.67;;;3.40;;
77287;SDS011;66345;42.694;23.346;2023-08-06T00:43:26;8.77;;;3.47;;
77287;SDS011;66345;42.694;23.346;2023-08-06T00:45:52;7.77;;;4.40;;
77287;SDS011;66345;42.694;23.346;2023-08-06T00:48:17;7.93;;;4.70;;
77287;SDS011;66345;42.694;23.346;2023-08-06T00:50:44;8.80;;;5.18;;
77287;SDS011;66345;42.694;23.346;2023-08-06T00:53:09;8.70;;;4.50;;
77287;SDS011;66345;42.694;23.346;2023-08-06T00:55:35;11.15;;;5.03;;
77287;SDS011;66345;42.694;23.346;2023-08-06T00:58:01;9.70;;;4.72;;
77287;SDS011;66345;42.694;23.346;2023-08-06T01:00:27;8.20;;;4.82;;
77287;SDS011;66345;42.694;23.346;2023-08-06T01:02:53;8.50;;;5.00;;
77287;SDS011;66345;42.694;23.346;2023-08-06T01:05:20;9.48;;;5.20;;
77287;SDS011;66345;42.694;23.346;2023-08-06T01:13:47;9.05;;;4.85;;
77287;SDS011;66345;42.694;23.346;2023-08-06T01:16:17;8.45;;;4.32;;
77287;SDS011;66345;42.694;23.346;2023-08-06T01:18:43;8.75;;;4.32;;
77287;SDS011;66345;42.694;23.346;2023-08-06T01:21:14;9.02;;;4.13;;
77287;SDS011;66345;42.694;23.346;2023-08-06T01:23:41;7.63;;;4.38;;
77287;SDS011;66345;42.694;23.346;2023-08-06T01:29:07;7.93;;;4.43;;
77287;SDS011;66345;42.694;23.346;2023-08-06T01:31:41;7.47;;;3.88;;
77287;SDS011;66345;42.694;23.346;2023-08-06T01:34:10;7.07;;;3.53;;
77287;SDS011;66345;42.694;23.346;2023-08-06T01:36:48;6.30;;;3.40;;
77287;SDS011;66345;42.694;23.346;2023-08-06T01:39:15;6.50;;;3.10;;
77287;SDS011;66345;42.694;23.346;2023-08-06T01:41:40;6.60;;;3.07;;
77287;SDS011;66345;42.694;23.346;2023-08-06T01:44:06;6.57;;;2.97;;
77287;SDS011;66345;42.694;23.346;2023-08-06T01:46:31;6.07;;;3.03;;
77287;SDS011;66345;42.694;23.346;2023-08-06T01:48:57;7.90;;;3.33;;
77287;SDS011;66345;42.694;23.346;2023-08-06T01:51:22;7.03;;;2.70;;
77287;SDS011;66345;42.694;23.346;2023-08-06T01:53:48;6.32;;;3.40;;
77287;SDS011;66345;42.694;23.346;2023-08-06T01:56:13;6.53;;;3.37;;
77287;SDS011;66345;42.694;23.346;2023-08-06T01:58:39;7.17;;;3.33;;
77287;SDS011;66345;42.694;23.346;2023-08-06T02:01:04;7.57;;;3.20;;
77287;SDS011;66345;42.694;23.346;2023-08-06T02:03:30;8.80;;;3.50;;
77287;SDS011;66345;42.694;23.346;2023-08-06T02:05:55;8.10;;;3.63;;
77287;SDS011;66345;42.694;23.346;2023-08-06T02:08:21;6.10;;;2.93;;
77287;SDS011;66345;42.694;23.346;2023-08-06T02:10:46;6.18;;;2.83;;
77287;SDS011;66345;42.694;23.346;2023-08-06T02:13:12;6.83;;;3.20;;
77287;SDS011;66345;42.694;23.346;2023-08-06T02:15:44;7.30;;;2.97;;
77287;SDS011;66345;42.694;23.346;2023-08-06T02:18:12;6.72;;;2.70;;
77287;SDS011;66345;42.694;23.346;2023-08-06T02:20:38;5.90;;;2.55;;
77287;SDS011;66345;42.694;23.346;2023-08-06T02:23:04;6.73;;;3.27;;
77287;SDS011;66345;42.694;23.346;2023-08-06T02:25:29;6.65;;;3.10;;
77287;SDS011;66345;42.694;23.346;2023-08-06T02:27:55;8.10;;;3.07;;
77287;SDS011;66345;42.694;23.346;2023-08-06T02:30:20;6.50;;;3.20;;
77287;SDS011;66345;42.694;23.346;2023-08-06T02:32:46;6.80;;;3.27;;
77287;SDS011;66345;42.694;23.346;2023-08-06T02:35:11;11.40;;;3.95;;
77287;SDS011;66345;42.694;23.346;2023-08-06T02:37:37;11.87;;;3.93;;
77287;SDS011;66345;42.694;23.346;2023-08-06T02:40:02;14.97;;;4.77;;
77287;SDS011;66345;42.694;23.346;2023-08-06T02:42:28;18.67;;;4.80;;
77287;SDS011;66345;42.694;23.346;2023-08-06T02:44:54;9.93;;;3.80;;
77287;SDS011;66345;42.694;23.346;2023-08-06T02:47:22;9.35;;;4.00;;
77287;SDS011;66345;42.694;23.346;2023-08-06T02:49:48;11.75;;;4.65;;
77287;SDS011;66345;42.694;23.346;2023-08-06T02:52:14;10.40;;;3.80;;
77287;SDS011;66345;42.694;23.346;2023-08-06T02:54:39;9.53;;;4.03;;
77287;SDS011;66345;42.694;23.346;2023-08-06T02:57:05;8.80;;;3.58;;
77287;SDS011;66345;42.694;23.346;2023-08-06T02:59:31;6.30;;;3.30;;
77287;SDS011;66345;42.694;23.346;2023-08-06T03:01:57;7.13;;;3.47;;
77287;SDS011;66345;42.694;23.346;2023-08-06T03:04:22;9.83;;;3.97;;
77287;SDS011;66345;42.694;23.346;2023-08-06T03:06:51;8.68;;;3.40;;
77287;SDS011;66345;42.694;23.346;2023-08-06T03:09:17;9.32;;;3.75;;
77287;SDS011;66345;42.694;23.346;2023-08-06T03:11:43;8.38;;;3.67;;
77287;SDS011;66345;42.694;23.346;2023-08-06T03:14:09;7.60;;;3.70;;
77287;SDS011;66345;42.694;23.346;2023-08-06T03:16:34;9.02;;;3.80;;
77287;SDS011;66345;42.694;23.346;2023-08-06T03:19:00;6.97;;;3.60;;
77287;SDS011;66345;42.694;23.346;2023-08-06T03:21:25;7.73;;;3.70;;
77287;SDS011;66345;42.694;23.346;2023-08-06T03:23:51;7.78;;;4.15;;
77287;SDS011;66345;42.694;23.346;2023-08-06T03:26:17;6.00;;;3.43;;
77287;SDS011;66345;42.694;23.346;2023-08-06T03:28:42;8.27;;;4.82;;
77287;SDS011;66345;42.694;23.346;2023-08-06T03:31:08;10.18;;;5.55;;
77287;SDS011;66345;42.694;23.346;2023-08-06T03:33:34;8.07;;;5.00;;
77287;SDS011;66345;42.694;23.346;2023-08-06T03:35:59;7.95;;;4.70;;
77287;SDS011;66345;42.694;23.346;2023-08-06T03:38:25;8.20;;;4.30;;
77287;SDS011;66345;42.694;23.346;2023-08-06T03:40:50;8.77;;;4.07;;
77287;SDS011;66345;42.694;23.346;2023-08-06T03:43:16;7.67;;;3.40;;
77287;SDS011;66345;42.694;23.346;2023-08-06T03:45:42;6.83;;;3.47;;
77287;SDS011;66345;42.694;23.346;2023-08-06T03:48:07;8.27;;;3.63;;
77287;SDS011;66345;42.694;23.346;2023-08-06T03:50:33;10.73;;;4.25;;
77287;SDS011;66345;42.694;23.346;2023-08-06T03:52:59;7.70;;;3.93;;
77287;SDS011;66345;42.694;23.346;2023-08-06T03:55:24;8.53;;;3.87;;
77287;SDS011;66345;42.694;23.346;2023-08-06T03:57:50;6.87;;;3.37;;
77287;SDS011;66345;42.694;23.346;2023-08-06T04:00:15;6.38;;;3.83;;
77287;SDS011;66345;42.694;23.346;2023-08-06T04:02:41;9.60;;;3.87;;
77287;SDS011;66345;42.694;23.346;2023-08-06T04:05:06;7.37;;;3.93;;
77287;SDS011;66345;42.694;23.346;2023-08-06T04:07:32;9.93;;;3.85;;
77287;SDS011;66345;42.694;23.346;2023-08-06T04:09:59;8.03;;;3.40;;
77287;SDS011;66345;42.694;23.346;2023-08-06T04:12:25;7.35;;;3.30;;
77287;SDS011;66345;42.694;23.346;2023-08-06T04:14:51;6.35;;;3.10;;
77287;SDS011;66345;42.694;23.346;2023-08-06T04:17:17;6.17;;;3.20;;
77287;SDS011;66345;42.694;23.346;2023-08-06T04:19:47;6.88;;;3.25;;
77287;SDS011;66345;42.694;23.346;2023-08-06T04:22:14;6.07;;;3.10;;
77287;SDS011;66345;42.694;23.346;2023-08-06T04:24:39;7.57;;;3.50;;
77287;SDS011;66345;42.694;23.346;2023-08-06T04:27:05;8.20;;;3.90;;
77287;SDS011;66345;42.694;23.346;2023-08-06T04:29:31;8.87;;;3.50;;
77287;SDS011;66345;42.694;23.346;2023-08-06T04:31:56;5.72;;;3.17;;
77287;SDS011;66345;42.694;23.346;2023-08-06T04:34:22;6.90;;;3.50;;
77287;SDS011;66345;42.694;23.346;2023-08-06T04:36:48;5.80;;;3.47;;
77287;SDS011;66345;42.694;23.346;2023-08-06T04:39:13;7.13;;;3.45;;
77287;SDS011;66345;42.694;23.346;2023-08-06T04:41:39;6.50;;;3.70;;
77287;SDS011;66345;42.694;23.346;2023-08-06T04:44:04;7.47;;;3.67;;
77287;SDS011;66345;42.694;23.346;2023-08-06T04:46:30;6.15;;;3.40;;
77287;SDS011;66345;42.694;23.346;2023-08-06T04:48:55;7.37;;;3.60;;
77287;SDS011;66345;42.694;23.346;2023-08-06T04:51:21;5.77;;;3.30;;
77287;SDS011;66345;42.694;23.346;2023-08-06T04:53:46;5.63;;;2.90;;
77287;SDS011;66345;42.694;23.346;2023-08-06T04:56:12;5.28;;;3.00;;
77287;SDS011;66345;42.694;23.346;2023-08-06T04:58:37;6.30;;;3.58;;
77287;SDS011;66345;42.694;23.346;2023-08-06T05:01:02;9.20;;;3.90;;
77287;SDS011;66345;42.694;23.346;2023-08-06T05:03:28;7.43;;;3.47;;
77287;SDS011;66345;42.694;23.346;2023-08-06T05:05:54;8.07;;;4.22;;
77287;SDS011;66345;42.694;23.346;2023-08-06T05:08:19;6.30;;;3.27;;
77287;SDS011;66345;42.694;23.346;2023-08-06T05:10:45;7.43;;;3.17;;
77287;SDS011;66345;42.694;23.346;2023-08-06T05:13:11;5.45;;;2.95;;
77287;SDS011;66345;42.694;23.346;2023-08-06T05:15:36;4.80;;;2.78;;
77287;SDS011;66345;42.694;23.346;2023-08-06T05:18:02;6.37;;;2.50;;
77287;SDS011;66345;42.694;23.346;2023-08-06T05:20:28;4.70;;;2.67;;
77287;SDS011;66345;42.694;23.346;2023-08-06T05:22:53;4.27;;;2.37;;
77287;SDS011;66345;42.694;23.346;2023-08-06T05:25:19;5.23;;;2.60;;
77287;SDS011;66345;42.694;23.346;2023-08-06T05:27:45;5.70;;;2.92;;
77287;SDS011;66345;42.694;23.346;2023-08-06T05:30:10;4.60;;;2.63;;
77287;SDS011;66345;42.694;23.346;2023-08-06T05:32:36;5.63;;;2.70;;
77287;SDS011;66345;42.694;23.346;2023-08-06T05:35:02;4.90;;;2.93;;
77287;SDS011;66345;42.694;23.346;2023-08-06T05:37:28;4.97;;;3.05;;
77287;SDS011;66345;42.694;23.346;2023-08-06T05:39:53;6.80;;;3.50;;
77287;SDS011;66345;42.694;23.346;2023-08-06T05:42:19;5.23;;;3.37;;
77287;SDS011;66345;42.694;23.346;2023-08-06T05:44:44;6.15;;;3.35;;
77287;SDS011;66345;42.694;23.346;2023-08-06T05:47:09;5.07;;;2.93;;
77287;SDS011;66345;42.694;23.346;2023-08-06T05:49:35;5.00;;;3.13;;
77287;SDS011;66345;42.694;23.346;2023-08-06T05:52:00;5.03;;;3.20;;
77287;SDS011;66345;42.694;23.346;2023-08-06T05:54:27;6.80;;;3.30;;
77287;SDS011;66345;42.694;23.346;2023-08-06T05:56:53;6.10;;;3.17;;
77287;SDS011;66345;42.694;23.346;2023-08-06T05:59:18;5.20;;;3.10;;
77287;SDS011;66345;42.694;23.346;2023-08-06T06:01:44;5.30;;;2.90;;
77287;SDS011;66345;42.694;23.346;2023-08-06T06:04:09;5.90;;;3.17;;
77287;SDS011;66345;42.694;23.346;2023-08-06T06:06:36;4.40;;;2.42;;
77287;SDS011;66345;42.694;23.346;2023-08-06T06:09:01;6.25;;;2.90;;
77287;SDS011;66345;42.694;23.346;2023-08-06T06:11:27;4.63;;;2.80;;
77287;SDS011;66345;42.694;23.346;2023-08-06T06:13:53;5.10;;;2.40;;
77287;SDS011;66345;42.694;23.346;2023-08-06T06:16:18;4.83;;;3.20;;
77287;SDS011;66345;42.694;23.346;2023-08-06T06:18:43;4.23;;;1.80;;
77287;SDS011;66345;42.694;23.346;2023-08-06T06:21:09;5.50;;;2.10;;
77287;SDS011;66345;42.694;23.346;2023-08-06T06:23:36;3.67;;;1.83;;
77287;SDS011;66345;42.694;23.346;2023-08-06T06:26:01;3.73;;;1.90;;
77287;SDS011;66345;42.694;23.346;2023-08-06T06:28:27;4.30;;;1.90;;
77287;SDS011;66345;42.694;23.346;2023-08-06T06:31:00;5.05;;;2.00;;
77287;SDS011;66345;42.694;23.346;2023-08-06T06:33:26;3.65;;;1.90;;
77287;SDS011;66345;42.694;23.346;2023-08-06T06:35:52;5.10;;;2.00;;
77287;SDS011;66345;42.694;23.346;2023-08-06T06:38:17;3.37;;;1.93;;
77287;SDS011;66345;42.694;23.346;2023-08-06T06:40:43;4.00;;;1.97;;
77287;SDS011;66345;42.694;23.346;2023-08-06T06:43:08;5.43;;;2.08;;
77287;SDS011;66345;42.694;23.346;2023-08-06T06:45:34;4.00;;;1.90;;
77287;SDS011;66345;42.694;23.346;2023-08-06T06:48:02;4.00;;;1.83;;
77287;SDS011;66345;42.694;23.346;2023-08-06T06:50:27;4.47;;;2.00;;
77287;SDS011;66345;42.694;23.346;2023-08-06T06:52:53;4.47;;;1.97;;
77287;SDS011;66345;42.694;23.346;2023-08-06T06:55:25;4.70;;;2.10;;
77287;SDS011;66345;42.694;23.346;2023-08-06T06:57:51;3.47;;;2.10;;
77287;SDS011;66345;42.694;23.346;2023-08-06T07:00:16;3.95;;;2.05;;
77287;SDS011;66345;42.694;23.346;2023-08-06T07:02:42;4.30;;;1.93;;
77287;SDS011;66345;42.694;23.346;2023-08-06T07:05:08;4.40;;;2.00;;
77287;SDS011;66345;42.694;23.346;2023-08-06T07:07:37;5.22;;;1.85;;
77287;SDS011;66345;42.694;23.346;2023-08-06T07:10:03;4.30;;;2.10;;
77287;SDS011;66345;42.694;23.346;2023-08-06T07:12:28;3.65;;;2.13;;
77287;SDS011;66345;42.694;23.346;2023-08-06T07:26:02;5.97;;;2.30;;
77287;SDS011;66345;42.694;23.346;2023-08-06T07:28:28;4.70;;;2.53;;
77287;SDS011;66345;42.694;23.346;2023-08-06T07:30:53;4.43;;;2.70;;
77287;SDS011;66345;42.694;23.346;2023-08-06T07:33:19;4.60;;;2.50;;
77287;SDS011;66345;42.694;23.346;2023-08-06T07:35:44;5.20;;;2.50;;
77287;SDS011;66345;42.694;23.346;2023-08-06T07:38:11;4.53;;;2.45;;
77287;SDS011;66345;42.694;23.346;2023-08-06T07:40:36;5.28;;;2.72;;
77287;SDS011;66345;42.694;23.346;2023-08-06T07:43:02;4.10;;;2.40;;
77287;SDS011;66345;42.694;23.346;2023-08-06T07:45:32;5.38;;;2.65;;
77287;SDS011;66345;42.694;23.346;2023-08-06T07:47:59;5.93;;;3.00;;
77287;SDS011;66345;42.694;23.346;2023-08-06T07:50:24;4.57;;;2.83;;
77287;SDS011;66345;42.694;23.346;2023-08-06T07:52:50;4.45;;;3.05;;
77287;SDS011;66345;42.694;23.346;2023-08-06T07:55:16;4.13;;;2.73;;
77287;SDS011;66345;42.694;23.346;2023-08-06T07:57:41;4.13;;;2.40;;
77287;SDS011;66345;42.694;23.346;2023-08-06T08:00:07;4.67;;;2.50;;
77287;SDS011;66345;42.694;23.346;2023-08-06T08:02:34;3.90;;;2.40;;
77287;SDS011;66345;42.694;23.346;2023-08-06T08:05:00;5.07;;;2.60;;
77287;SDS011;66345;42.694;23.346;2023-08-06T08:07:26;4.55;;;2.30;;
77287;SDS011;66345;42.694;23.346;2023-08-06T08:09:54;6.70;;;2.60;;
77287;SDS011;66345;42.694;23.346;2023-08-06T08:12:19;5.85;;;2.60;;
77287;SDS011;66345;42.694;23.346;2023-08-06T08:14:45;4.97;;;2.60;;
77287;SDS011;66345;42.694;23.346;2023-08-06T08:17:10;4.18;;;2.50;;
77287;SDS011;66345;42.694;23.346;2023-08-06T08:19:37;5.10;;;2.50;;
77287;SDS011;66345;42.694;23.346;2023-08-06T08:22:02;5.43;;;2.78;;
77287;SDS011;66345;42.694;23.346;2023-08-06T08:24:28;4.67;;;2.40;;
77287;SDS011;66345;42.694;23.346;2023-08-06T08:26:55;4.85;;;2.22;;
77287;SDS011;66345;42.694;23.346;2023-08-06T08:29:21;4.32;;;2.95;;
77287;SDS011;66345;42.694;23.346;2023-08-06T08:31:46;4.43;;;2.70;;
77287;SDS011;66345;42.694;23.346;2023-08-06T08:34:14;4.93;;;2.50;;
77287;SDS011;66345;42.694;23.346;2023-08-06T08:36:40;5.78;;;2.50;;
77287;SDS011;66345;42.694;23.346;2023-08-06T08:39:06;4.07;;;2.73;;
77287;SDS011;66345;42.694;23.346;2023-08-06T08:41:37;8.27;;;3.37;;
77287;SDS011;66345;42.694;23.346;2023-08-06T08:44:04;4.10;;;2.83;;
77287;SDS011;66345;42.694;23.346;2023-08-06T08:46:34;4.78;;;2.83;;
77287;SDS011;66345;42.694;23.346;2023-08-06T08:49:02;5.53;;;2.92;;
77287;SDS011;66345;42.694;23.346;2023-08-06T08:51:27;4.50;;;2.90;;
77287;SDS011;66345;42.694;23.346;2023-08-06T08:53:54;4.75;;;2.88;;
77287;SDS011;66345;42.694;23.346;2023-08-06T08:56:24;4.95;;;3.13;;
77287;SDS011;66345;42.694;23.346;2023-08-06T08:58:50;5.83;;;2.90;;
77287;SDS011;66345;42.694;23.346;2023-08-06T09:01:18;5.30;;;2.95;;
77287;SDS011;66345;42.694;23.346;2023-08-06T09:03:45;4.60;;;3.35;;
77287;SDS011;66345;42.694;23.346;2023-08-06T09:06:13;4.63;;;3.00;;
77287;SDS011;66345;42.694;23.346;2023-08-06T09:08:45;5.78;;;4.10;;
77287;SDS011;66345;42.694;23.346;2023-08-06T09:11:16;5.23;;;3.20;;
77287;SDS011;66345;42.694;23.346;2023-08-06T09:13:45;5.78;;;3.20;;
77287;SDS011;66345;42.694;23.346;2023-08-06T09:16:11;4.25;;;2.92;;
77287;SDS011;66345;42.694;23.346;2023-08-06T09:18:37;4.30;;;3.27;;
77287;SDS011;66345;42.694;23.346;2023-08-06T09:21:04;5.43;;;3.35;;
77287;SDS011;66345;42.694;23.346;2023-08-06T09:23:30;5.10;;;3.67;;
77287;SDS011;66345;42.694;23.346;2023-08-06T09:25:58;4.50;;;3.05;;
77287;SDS011;66345;42.694;23.346;2023-08-06T09:28:23;4.10;;;3.00;;
77287;SDS011;66345;42.694;23.346;2023-08-06T09:30:52;5.07;;;2.90;;
77287;SDS011;66345;42.694;23.346;2023-08-06T09:33:20;5.88;;;3.00;;
77287;SDS011;66345;42.694;23.346;2023-08-06T09:35:47;3.97;;;2.93;;
77287;SDS011;66345;42.694;23.346;2023-08-06T09:38:13;4.47;;;3.10;;
77287;SDS011;66345;42.694;23.346;2023-08-06T09:40:40;4.30;;;2.77;;
77287;SDS011;66345;42.694;23.346;2023-08-06T09:43:06;5.00;;;2.90;;
77287;SDS011;66345;42.694;23.346;2023-08-06T09:45:36;4.80;;;3.03;;
77287;SDS011;66345;42.694;23.346;2023-08-06T09:48:03;4.83;;;2.87;;
77287;SDS011;66345;42.694;23.346;2023-08-06T09:50:30;4.28;;;2.97;;
77287;SDS011;66345;42.694;23.346;2023-08-06T09:52:57;4.55;;;3.00;;
77287;SDS011;66345;42.694;23.346;2023-08-06T09:55:24;5.00;;;3.15;;
77287;SDS011;66345;42.694;23.346;2023-08-06T09:57:52;4.45;;;2.70;;
77287;SDS011;66345;42.694;23.346;2023-08-06T10:00:19;4.10;;;2.00;;
77287;SDS011;66345;42.694;23.346;2023-08-06T10:02:45;4.68;;;2.40;;
77287;SDS011;66345;42.694;23.346;2023-08-06T10:05:13;4.95;;;3.10;;
77287;SDS011;66345;42.694;23.346;2023-08-06T10:07:42;4.35;;;2.30;;
77287;SDS011;66345;42.694;23.346;2023-08-06T10:10:09;4.18;;;2.10;;
77287;SDS011;66345;42.694;23.346;2023-08-06T10:12:54;4.20;;;2.03;;
77287;SDS011;66345;42.694;23.346;2023-08-06T10:15:25;5.03;;;2.30;;
77287;SDS011;66345;42.694;23.346;2023-08-06T10:17:53;4.50;;;1.83;;
77287;SDS011;66345;42.694;23.346;2023-08-06T10:20:21;5.60;;;1.95;;
77287;SDS011;66345;42.694;23.346;2023-08-06T10:23:03;5.28;;;2.70;;
77287;SDS011;66345;42.694;23.346;2023-08-06T10:25:31;4.47;;;2.33;;
77287;SDS011;66345;42.694;23.346;2023-08-06T10:27:58;4.93;;;2.35;;
77287;SDS011;66345;42.694;23.346;2023-08-06T10:30:28;5.23;;;2.20;;
77287;SDS011;66345;42.694;23.346;2023-08-06T10:32:56;5.00;;;2.17;;
77287;SDS011;66345;42.694;23.346;2023-08-06T10:35:36;4.32;;;2.13;;
77287;SDS011;66345;42.694;23.346;2023-08-06T10:40:42;3.65;;;2.08;;
77287;SDS011;66345;42.694;23.346;2023-08-06T10:45:58;4.72;;;2.08;;
77287;SDS011;66345;42.694;23.346;2023-08-06T10:50:59;3.72;;;2.00;;
77287;SDS011;66345;42.694;23.346;2023-08-06T10:53:27;3.95;;;2.08;;
77287;SDS011;66345;42.694;23.346;2023-08-06T10:55:52;6.00;;;2.10;;
77287;SDS011;66345;42.694;23.346;2023-08-06T10:58:18;4.23;;;2.37;;
77287;SDS011;66345;42.694;23.346;2023-08-06T11:00:43;5.00;;;2.38;;
77287;SDS011;66345;42.694;23.346;2023-08-06T11:03:09;4.50;;;2.00;;
77287;SDS011;66345;42.694;23.346;2023-08-06T11:05:38;4.45;;;2.30;;
77287;SDS011;66345;42.694;23.346;2023-08-06T11:08:04;4.57;;;2.30;;
77287;SDS011;66345;42.694;23.346;2023-08-06T11:10:32;5.97;;;2.50;;
77287;SDS011;66345;42.694;23.346;2023-08-06T11:13:01;4.68;;;2.63;;
77287;SDS011;66345;42.694;23.346;2023-08-06T11:15:27;4.72;;;2.45;;
77287;SDS011;66345;42.694;23.346;2023-08-06T11:17:54;5.03;;;2.70;;
77287;SDS011;66345;42.694;23.346;2023-08-06T11:20:20;5.72;;;3.15;;
77287;SDS011;66345;42.694;23.346;2023-08-06T11:22:46;3.97;;;2.33;;
77287;SDS011;66345;42.694;23.346;2023-08-06T11:25:13;5.90;;;2.83;;
77287;SDS011;66345;42.694;23.346;2023-08-06T11:27:39;4.70;;;2.78;;
77287;SDS011;66345;42.694;23.346;2023-08-06T11:30:04;5.23;;;2.73;;
77287;SDS011;66345;42.694;23.346;2023-08-06T11:32:32;5.55;;;2.92;;
77287;SDS011;66345;42.694;23.346;2023-08-06T11:34:58;5.38;;;3.05;;
77287;SDS011;66345;42.694;23.346;2023-08-06T11:37:24;6.23;;;3.27;;
77287;SDS011;66345;42.694;23.346;2023-08-06T11:39:50;7.43;;;2.92;;
77287;SDS011;66345;42.694;23.346;2023-08-06T11:42:17;4.10;;;2.80;;
77287;SDS011;66345;42.694;23.346;2023-08-06T11:44:42;5.13;;;2.67;;
77287;SDS011;66345;42.694;23.346;2023-08-06T11:47:17;7.00;;;2.90;;
77287;SDS011;66345;42.694;23.346;2023-08-06T11:49:47;5.80;;;2.90;;
77287;SDS011;66345;42.694;23.346;2023-08-06T11:52:21;4.35;;;2.70;;
77287;SDS011;66345;42.694;23.346;2023-08-06T11:55:04;4.73;;;2.90;;
77287;SDS011;66345;42.694;23.346;2023-08-06T11:57:35;4.75;;;3.30;;
77287;SDS011;66345;42.694;23.346;2023-08-06T12:00:05;5.13;;;2.97;;
77287;SDS011;66345;42.694;23.346;2023-08-06T12:02:36;5.22;;;3.33;;
77287;SDS011;66345;42.694;23.346;2023-08-06T12:05:04;5.10;;;3.40;;
77287;SDS011;66345;42.694;23.346;2023-08-06T12:07:39;5.10;;;3.17;;
77287;SDS011;66345;42.694;23.346;2023-08-06T12:10:06;5.63;;;3.72;;
77287;SDS011;66345;42.694;23.346;2023-08-06T12:12:32;5.88;;;3.88;;
77287;SDS011;66345;42.694;23.346;2023-08-06T12:14:59;5.03;;;3.20;;
77287;SDS011;66345;42.694;23.346;2023-08-06T12:17:25;5.30;;;3.60;;
77287;SDS011;66345;42.694;23.346;2023-08-06T12:19:50;6.80;;;4.03;;
77287;SDS011;66345;42.694;23.346;2023-08-06T12:22:16;6.50;;;3.60;;
77287;SDS011;66345;42.694;23.346;2023-08-06T12:24:43;4.97;;;3.63;;
77287;SDS011;66345;42.694;23.346;2023-08-06T12:27:09;6.25;;;3.72;;
77287;SDS011;66345;42.694;23.346;2023-08-06T12:29:35;5.90;;;3.85;;
77287;SDS011;66345;42.694;23.346;2023-08-06T12:32:02;5.50;;;3.83;;
77287;SDS011;66345;42.694;23.346;2023-08-06T12:34:28;6.55;;;4.10;;
77287;SDS011;66345;42.694;23.346;2023-08-06T12:36:54;6.80;;;3.70;;
77287;SDS011;66345;42.694;23.346;2023-08-06T12:39:19;5.70;;;4.40;;
77287;SDS011;66345;42.694;23.346;2023-08-06T12:41:44;6.77;;;4.10;;
77287;SDS011;66345;42.694;23.346;2023-08-06T12:44:11;7.60;;;4.50;;
77287;SDS011;66345;42.694;23.346;2023-08-06T12:46:37;7.18;;;4.45;;
77287;SDS011;66345;42.694;23.346;2023-08-06T12:49:04;6.45;;;4.22;;
77287;SDS011;66345;42.694;23.346;2023-08-06T12:51:30;14.20;;;5.30;;
77287;SDS011;66345;42.694;23.346;2023-08-06T12:53:56;6.50;;;3.92;;
77287;SDS011;66345;42.694;23.346;2023-08-06T12:56:21;6.50;;;3.80;;
77287;SDS011;66345;42.694;23.346;2023-08-06T12:58:47;7.83;;;3.90;;
77287;SDS011;66345;42.694;23.346;2023-08-06T13:01:12;7.15;;;4.40;;
77287;SDS011;66345;42.694;23.346;2023-08-06T13:03:37;5.77;;;4.00;;
77287;SDS011;66345;42.694;23.346;2023-08-06T13:06:03;5.47;;;3.80;;
77287;SDS011;66345;42.694;23.346;2023-08-06T13:08:29;5.83;;;3.90;;
77287;SDS011;66345;42.694;23.346;2023-08-06T13:10:54;6.60;;;4.13;;
77287;SDS011;66345;42.694;23.346;2023-08-06T13:13:19;6.30;;;3.97;;
77287;SDS011;66345;42.694;23.346;2023-08-06T13:15:45;8.53;;;4.27;;
77287;SDS011;66345;42.694;23.346;2023-08-06T13:18:12;7.07;;;4.25;;
77287;SDS011;66345;42.694;23.346;2023-08-06T13:20:38;5.50;;;3.50;;
77287;SDS011;66345;42.694;23.346;2023-08-06T13:23:05;7.13;;;4.10;;
77287;SDS011;66345;42.694;23.346;2023-08-06T13:25:31;8.30;;;5.40;;
77287;SDS011;66345;42.694;23.346;2023-08-06T13:28:01;6.00;;;3.90;;
77287;SDS011;66345;42.694;23.346;2023-08-06T13:30:27;11.10;;;7.78;;
77287;SDS011;66345;42.694;23.346;2023-08-06T13:32:52;5.33;;;4.10;;
77287;SDS011;66345;42.694;23.346;2023-08-06T13:35:20;6.82;;;3.97;;
77287;SDS011;66345;42.694;23.346;2023-08-06T13:37:47;9.67;;;4.60;;
77287;SDS011;66345;42.694;23.346;2023-08-06T13:40:14;6.57;;;3.75;;
77287;SDS011;66345;42.694;23.346;2023-08-06T13:42:40;6.28;;;3.65;;
77287;SDS011;66345;42.694;23.346;2023-08-06T13:45:06;6.60;;;3.90;;
77287;SDS011;66345;42.694;23.346;2023-08-06T13:47:32;6.18;;;4.05;;
77287;SDS011;66345;42.694;23.346;2023-08-06T13:49:57;6.90;;;4.67;;
77287;SDS011;66345;42.694;23.346;2023-08-06T13:52:25;5.78;;;3.63;;
77287;SDS011;66345;42.694;23.346;2023-08-06T13:54:51;8.07;;;3.70;;
77287;SDS011;66345;42.694;23.346;2023-08-06T13:57:17;7.93;;;4.57;;
77287;SDS011;66345;42.694;23.346;2023-08-06T13:59:43;7.13;;;4.80;;
77287;SDS011;66345;42.694;23.346;2023-08-06T14:02:11;7.22;;;3.90;;
77287;SDS011;66345;42.694;23.346;2023-08-06T14:04:36;6.60;;;4.03;;
77287;SDS011;66345;42.694;23.346;2023-08-06T14:07:06;5.57;;;3.50;;
77287;SDS011;66345;42.694;23.346;2023-08-06T14:09:32;4.78;;;3.40;;
77287;SDS011;66345;42.694;23.346;2023-08-06T14:11:59;5.53;;;3.58;;
77287;SDS011;66345;42.694;23.346;2023-08-06T14:14:25;6.97;;;3.93;;
77287;SDS011;66345;42.694;23.346;2023-08-06T14:16:52;6.53;;;4.07;;
77287;SDS011;66345;42.694;23.346;2023-08-06T14:19:19;5.82;;;3.63;;
77287;SDS011;66345;42.694;23.346;2023-08-06T14:21:44;5.70;;;3.70;;
77287;SDS011;66345;42.694;23.346;2023-08-06T14:24:10;6.07;;;3.87;;
77287;SDS011;66345;42.694;23.346;2023-08-06T14:26:35;7.75;;;3.72;;
77287;SDS011;66345;42.694;23.346;2023-08-06T14:29:01;6.17;;;3.60;;
77287;SDS011;66345;42.694;23.346;2023-08-06T14:31:28;5.93;;;3.65;;
77287;SDS011;66345;42.694;23.346;2023-08-06T14:33:53;5.37;;;3.13;;
77287;SDS011;66345;42.694;23.346;2023-08-06T14:36:19;7.83;;;3.10;;
77287;SDS011;66345;42.694;23.346;2023-08-06T14:38:44;7.35;;;3.30;;
77287;SDS011;66345;42.694;23.346;2023-08-06T14:41:10;5.70;;;3.23;;
77287;SDS011;66345;42.694;23.346;2023-08-06T14:43:36;4.93;;;3.20;;
77287;SDS011;66345;42.694;23.346;2023-08-06T14:46:01;4.97;;;3.10;;
77287;SDS011;66345;42.694;23.346;2023-08-06T14:48:27;8.13;;;4.07;;
77287;SDS011;66345;42.694;23.346;2023-08-06T14:50:53;5.47;;;3.10;;
77287;SDS011;66345;42.694;23.346;2023-08-06T14:53:19;5.63;;;3.20;;
77287;SDS011;66345;42.694;23.346;2023-08-06T14:55:44;6.47;;;3.27;;
77287;SDS011;66345;42.694;23.346;2023-08-06T14:58:09;4.55;;;3.05;;